You are not logged in, Click here to log in
ICAO: ROMY Country: 日本沖繩縣宮古島市
Latitude: 24.7794 Longitude: 125.297
Total Arrivals: 5 Total Departures: 4
Latest Arrival: V8Z01 (RCTP-ROMY)Meng Sheng. Chan Latest Departure: NU566 (ROMY-ROAH)Meng Sheng. Chan
Scenery:
METAR : ROMY 231000Z 09013KT 9999 SCT017 SCT/// 29/26 Q1007

宮古機場